createdAt,value
2023-03-26T00:03:12.970Z,8.47
2023-03-26T00:08:15.676Z,8.36
2023-03-26T00:13:16.997Z,8.28
2023-03-26T00:18:22.300Z,8.14
2023-03-26T00:23:24.106Z,8.12
2023-03-26T00:28:26.363Z,8.26
2023-03-26T00:33:27.981Z,8.25
2023-03-26T00:38:29.282Z,8.17
2023-03-26T00:43:32.903Z,8.03
2023-03-26T00:48:44.663Z,7.98
2023-03-26T00:53:47.918Z,7.93
2023-03-26T00:58:50.175Z,7.89
2023-03-26T01:04:08.343Z,7.87
2023-03-26T01:09:15.952Z,7.72
2023-03-26T01:14:25.242Z,7.54
2023-03-26T01:19:45.153Z,7.50
2023-03-26T01:24:52.866Z,7.43
2023-03-26T01:29:55.761Z,7.29
2023-03-26T01:35:13.112Z,7.35
2023-03-26T01:40:26.854Z,7.41
2023-03-26T01:45:30.406Z,7.38
2023-03-26T01:50:31.770Z,7.41
2023-03-26T01:55:49.510Z,7.43
2023-03-26T02:00:57.092Z,7.55
2023-03-26T02:06:03.473Z,7.62
2023-03-26T02:11:13.329Z,7.76
2023-03-26T02:16:16.552Z,7.76
2023-03-26T02:21:20.396Z,7.84
2023-03-26T02:26:21.867Z,7.89
2023-03-26T02:31:26.483Z,7.98
2023-03-26T02:36:28.491Z,7.99
2023-03-26T02:41:29.931Z,8.09
2023-03-26T02:46:32.515Z,8.13
2023-03-26T02:51:37.432Z,8.06
2023-03-26T02:56:38.850Z,8.03
2023-03-26T03:01:42.966Z,7.97
2023-03-26T03:06:47.124Z,7.98
2023-03-26T03:11:48.447Z,7.99
2023-03-26T03:16:49.854Z,7.92
2023-03-26T03:21:51.421Z,7.83
2023-03-26T03:26:56.367Z,7.81
2023-03-26T03:32:00.010Z,7.73
2023-03-26T03:37:01.405Z,7.68
2023-03-26T03:42:02.731Z,7.74
2023-03-26T03:47:04.041Z,7.67
2023-03-26T03:52:05.758Z,7.64
2023-03-26T03:57:07.164Z,7.57
2023-03-26T04:02:08.599Z,7.43
2023-03-26T04:07:10.149Z,7.39
2023-03-26T04:12:11.484Z,7.36
2023-03-26T04:17:15.874Z,7.36
2023-03-26T04:22:18.402Z,7.42
2023-03-26T04:27:25.464Z,7.31
2023-03-26T04:32:29.751Z,7.33
2023-03-26T04:37:34.461Z,7.29
2023-03-26T04:42:37.625Z,7.30
2023-03-26T04:47:39.600Z,7.32
2023-03-26T04:52:42.635Z,7.32
2023-03-26T04:57:48.354Z,7.37
2023-03-26T05:02:50.482Z,7.36
2023-03-26T05:07:52.246Z,7.30
2023-03-26T05:12:53.643Z,7.27
2023-03-26T05:17:55.713Z,7.28
2023-03-26T05:22:57.096Z,7.34
2023-03-26T05:27:58.420Z,7.38
2023-03-26T05:32:59.836Z,7.37
2023-03-26T05:38:01.266Z,7.32
2023-03-26T05:43:03.178Z,7.29
2023-03-26T05:48:04.622Z,7.20
2023-03-26T05:53:05.945Z,7.17
2023-03-26T05:58:07.375Z,7.13
2023-03-26T06:03:12.749Z,7.10
2023-03-26T06:08:14.316Z,7.04
2023-03-26T06:13:16.869Z,7.01
2023-03-26T06:18:19.532Z,7.04
2023-03-26T06:23:20.955Z,7.12
2023-03-26T06:28:22.495Z,7.18
2023-03-26T06:33:24.662Z,7.22
2023-03-26T06:38:26.057Z,7.26
2023-03-26T06:43:27.365Z,7.16
2023-03-26T06:48:28.770Z,7.10
2023-03-26T06:53:30.330Z,7.08
2023-03-26T06:58:31.688Z,7.05
2023-03-26T07:03:33.227Z,7.03
2023-03-26T07:08:34.588Z,7.04
2023-03-26T07:13:37.517Z,7.00
2023-03-26T07:18:38.933Z,6.94
2023-03-26T07:23:40.563Z,6.94
2023-03-26T07:29:03.988Z,6.86
2023-03-26T07:34:09.591Z,6.84
2023-03-26T07:39:20.282Z,6.86
2023-03-26T07:44:40.376Z,6.85
2023-03-26T07:49:43.333Z,6.80
2023-03-26T07:54:44.802Z,6.76
2023-03-26T07:59:57.421Z,6.76
2023-03-26T08:05:05.001Z,6.85
2023-03-26T08:10:38.004Z,6.92
2023-03-26T08:16:08.838Z,7.00
2023-03-26T08:21:14.107Z,7.14
2023-03-26T08:26:31.827Z,7.28
2023-03-26T08:31:35.034Z,7.27
2023-03-26T08:36:36.939Z,7.25
2023-03-26T08:41:57.092Z,7.15
2023-03-26T08:47:16.216Z,7.10
2023-03-26T08:52:21.446Z,7.15
2023-03-26T08:57:41.750Z,7.30
2023-03-26T09:02:51.838Z,7.45
2023-03-26T09:07:59.174Z,7.48
2023-03-26T09:13:20.819Z,7.47
2023-03-26T09:18:41.022Z,7.75
2023-03-26T09:23:57.870Z,7.93
2023-03-26T09:29:05.275Z,7.93
2023-03-26T09:34:16.053Z,8.00
2023-03-26T09:39:37.792Z,8.87
2023-03-26T09:44:58.015Z,8.95
2023-03-26T09:50:02.686Z,9.07
2023-03-26T09:55:19.611Z,9.02
2023-03-26T10:00:23.981Z,9.24
2023-03-26T10:05:39.066Z,9.54
2023-03-26T10:10:40.476Z,9.04
2023-03-26T10:15:50.780Z,8.87
2023-03-26T10:20:59.111Z,8.44
2023-03-26T10:26:04.349Z,8.46
2023-03-26T10:31:26.873Z,8.25
2023-03-26T10:36:34.257Z,8.18
2023-03-26T10:41:41.728Z,8.27
2023-03-26T10:47:01.894Z,8.15
2023-03-26T10:52:06.261Z,8.03
2023-03-26T10:57:17.034Z,8.23
2023-03-26T11:02:30.275Z,8.42
2023-03-26T11:07:43.735Z,8.71
2023-03-26T11:12:48.704Z,8.51
2023-03-26T11:17:50.056Z,8.52
2023-03-26T11:22:51.394Z,8.35
2023-03-26T11:27:55.940Z,8.26
2023-03-26T11:33:01.565Z,8.22
2023-03-26T11:38:07.558Z,8.27
2023-03-26T11:43:11.288Z,8.29
2023-03-26T11:48:17.624Z,8.22
2023-03-26T11:53:20.420Z,8.16
2023-03-26T11:58:29.834Z,8.26
2023-03-26T12:03:33.220Z,8.23
2023-03-26T12:08:38.316Z,8.32
2023-03-26T12:13:53.250Z,8.38
2023-03-26T12:19:18.729Z,8.40
2023-03-26T12:24:29.363Z,8.36
2023-03-26T12:29:34.568Z,8.46
2023-03-26T12:34:37.484Z,8.57
2023-03-26T12:40:07.250Z,9.10
2023-03-26T12:45:02.327Z,9.24
2023-03-26T12:50:03.936Z,9.47
2023-03-26T12:55:17.665Z,9.85
2023-03-26T13:00:27.701Z,10.45
2023-03-26T13:05:50.731Z,10.22
2023-03-26T13:11:01.733Z,9.97
2023-03-26T13:16:16.285Z,9.31
2023-03-26T13:21:20.627Z,9.25
2023-03-26T13:26:37.202Z,9.11
2023-03-26T13:31:53.305Z,9.35
2023-03-26T13:37:06.989Z,9.05
2023-03-26T13:42:08.483Z,9.01
2023-03-26T13:47:12.742Z,9.17
2023-03-26T13:52:26.469Z,9.10
2023-03-26T13:57:31.798Z,8.90
2023-03-26T14:02:35.854Z,9.05
2023-03-26T14:07:41.949Z,9.32
2023-03-26T14:12:52.291Z,9.37
2023-03-26T14:17:58.639Z,9.49
2023-03-26T14:23:16.345Z,9.69
2023-03-26T14:28:36.411Z,9.90
2023-03-26T14:33:38.518Z,9.66
2023-03-26T14:38:39.859Z,9.77
2023-03-26T14:43:52.505Z,9.66
2023-03-26T14:48:53.889Z,9.62
2023-03-26T14:53:59.078Z,9.03
2023-03-26T14:59:29.586Z,8.81
2023-03-26T15:04:47.162Z,8.64
2023-03-26T15:09:49.259Z,8.39
2023-03-26T15:15:02.764Z,8.36
2023-03-26T15:20:26.064Z,8.61
2023-03-26T15:25:50.378Z,8.50
2023-03-26T15:30:57.907Z,8.36
2023-03-26T15:35:59.286Z,8.25
2023-03-26T15:41:00.708Z,8.18
2023-03-26T15:46:11.125Z,8.09
2023-03-26T15:51:24.466Z,8.03
2023-03-26T15:56:32.877Z,7.85
2023-03-26T16:02:02.395Z,7.82
2023-03-26T16:07:09.498Z,7.76
2023-03-26T16:12:16.767Z,7.77
2023-03-26T16:17:27.705Z,7.86
2023-03-26T16:22:56.124Z,7.75
2023-03-26T16:28:09.687Z,7.58
2023-03-26T16:33:15.432Z,7.61
2023-03-26T16:38:18.447Z,7.61
2023-03-26T16:43:26.632Z,7.55
2023-03-26T16:48:46.868Z,7.46
2023-03-26T16:53:54.627Z,7.41
2023-03-26T16:59:06.705Z,7.42
2023-03-26T17:04:23.113Z,7.38
2023-03-26T17:09:24.632Z,7.40
2023-03-26T17:14:31.292Z,7.44
2023-03-26T17:19:41.856Z,7.41
2023-03-26T17:24:54.341Z,7.37
2023-03-26T17:30:00.328Z,7.30
2023-03-26T17:35:02.228Z,7.26
2023-03-26T17:40:12.237Z,7.24
2023-03-26T17:45:20.379Z,7.23
2023-03-26T17:50:27.464Z,7.23
2023-03-26T17:55:37.084Z,7.13
2023-03-26T18:00:43.015Z,7.12
2023-03-26T18:05:45.323Z,7.05
2023-03-26T18:11:03.455Z,6.97
2023-03-26T18:16:17.299Z,6.86
2023-03-26T18:21:24.967Z,6.89
2023-03-26T18:26:38.579Z,6.84
2023-03-26T18:31:43.212Z,6.80
2023-03-26T18:37:04.810Z,6.77
2023-03-26T18:42:06.670Z,6.71
2023-03-26T18:47:09.668Z,6.78
2023-03-26T18:52:16.820Z,6.69
2023-03-26T18:57:21.927Z,6.61
2023-03-26T19:02:25.156Z,6.61
2023-03-26T19:07:26.755Z,6.59
2023-03-26T19:12:29.805Z,6.55
2023-03-26T19:17:39.057Z,6.47
2023-03-26T19:22:42.340Z,6.48
2023-03-26T19:27:43.861Z,6.47
2023-03-26T19:32:52.318Z,6.45
2023-03-26T19:37:56.589Z,6.47
2023-03-26T19:42:58.225Z,6.41
2023-03-26T19:48:13.938Z,6.39
2023-03-26T19:53:24.100Z,6.37
2023-03-26T19:58:26.563Z,6.32
2023-03-26T20:03:29.902Z,6.21
2023-03-26T20:08:31.534Z,6.19
2023-03-26T20:13:32.886Z,6.18
2023-03-26T20:18:34.630Z,6.15
2023-03-26T20:23:35.966Z,6.10
2023-03-26T20:28:47.313Z,6.07
2023-03-26T20:33:52.129Z,6.07
2023-03-26T20:38:53.492Z,5.97
2023-03-26T20:43:54.863Z,5.89
2023-03-26T20:48:57.316Z,5.88
2023-03-26T20:53:58.758Z,5.76
2023-03-26T20:59:10.370Z,5.67
2023-03-26T21:04:12.946Z,5.59
2023-03-26T21:09:17.528Z,5.57
2023-03-26T21:14:22.422Z,5.48
2023-03-26T21:19:24.172Z,5.44
2023-03-26T21:24:33.192Z,5.36
2023-03-26T21:29:34.725Z,5.37
2023-03-26T21:34:39.643Z,5.42
2023-03-26T21:39:44.763Z,5.31
2023-03-26T21:44:46.199Z,5.32
2023-03-26T21:49:47.719Z,5.29
2023-03-26T21:54:49.190Z,5.28
2023-03-26T22:00:16.008Z,5.22
2023-03-26T22:05:18.480Z,5.21
2023-03-26T22:10:20.590Z,5.24
2023-03-26T22:15:22.090Z,5.22
2023-03-26T22:20:28.148Z,5.13
2023-03-26T22:25:29.468Z,5.19
2023-03-26T22:30:32.138Z,5.11
2023-03-26T22:35:33.535Z,5.11
2023-03-26T22:40:34.943Z,5.04
2023-03-26T22:45:37.738Z,5.02
2023-03-26T22:50:39.057Z,4.91
2023-03-26T22:55:40.368Z,4.87
2023-03-26T23:00:41.713Z,4.82
2023-03-26T23:05:43.185Z,4.71
2023-03-26T23:10:47.544Z,4.65
2023-03-26T23:15:49.908Z,4.58
2023-03-26T23:20:58.665Z,4.48
2023-03-26T23:26:04.600Z,4.45
2023-03-26T23:31:07.237Z,4.43
2023-03-26T23:36:09.194Z,4.36
2023-03-26T23:41:14.773Z,4.34
2023-03-26T23:46:17.918Z,4.26
2023-03-26T23:51:23.941Z,4.16
2023-03-26T23:56:30.129Z,3.95
